Time;durP1;ratioP1;P1;durP2;ratioP2;P2;SDS_P1;SDS_P2;PMS_P1;PMS_P2;Temp;Humidity;BMP_temperature;BMP_pressure;BME280_temperature;BME280_humidity;BME280_pressure;Samples;Min_cycle;Max_cycle;Signal;HPM_P1;HPM_P2
2021/12/12 00:02:21;;;;;;;23.43;15.23;;;;;;;;;;5040540;28;20222;-70
2021/12/12 00:04:49;;;;;;;22.20;15.27;;;;;;;;;;5041985;28;20212;-70
2021/12/12 00:07:21;;;;;;;20.17;13.80;;;;;;;;;;5041279;28;20214;-70
2021/12/12 00:09:50;;;;;;;22.47;16.20;;;;;;;;;;5038892;28;20915;-70
2021/12/12 00:12:22;;;;;;;26.17;15.13;;;;;;;;;;5041811;28;20456;-70
2021/12/12 00:14:49;;;;;;;26.40;15.53;;;;;;;;;;5041488;28;20214;-70
2021/12/12 00:17:16;;;;;;;19.37;13.63;;;;;;;;;;5040260;28;20687;-70
2021/12/12 00:19:42;;;;;;;22.77;14.00;;;;;;;;;;5040505;28;20206;-70
2021/12/12 00:22:11;;;;;;;23.33;15.20;;;;;;;;;;5042563;28;20214;-70
2021/12/12 00:24:39;;;;;;;21.67;14.17;;;;;;;;;;5039103;28;20296;-70
2021/12/12 00:27:06;;;;;;;18.10;12.60;;;;;;;;;;5040268;28;20218;-70
2021/12/12 00:29:34;;;;;;;24.67;14.47;;;;;;;;;;5041435;28;20796;-70
2021/12/12 00:32:05;;;;;;;20.90;12.40;;;;;;;;;;5040293;28;20234;-70
2021/12/12 00:34:35;;;;;;;25.10;14.97;;;;;;;;;;5039801;28;20218;-70
2021/12/12 00:37:02;;;;;;;20.60;13.70;;;;;;;;;;5041333;28;20218;-70
2021/12/12 00:39:32;;;;;;;26.77;13.63;;;;;;;;;;5041438;28;20288;-70
2021/12/12 00:42:01;;;;;;;18.13;13.20;;;;;;;;;;5039842;28;20268;-70
2021/12/12 00:44:29;;;;;;;21.20;13.43;;;;;;;;;;5040362;28;20214;-70
2021/12/12 00:47:00;;;;;;;18.60;11.90;;;;;;;;;;5041732;28;20290;-70
2021/12/12 00:49:27;;;;;;;21.57;14.47;;;;;;;;;;5040084;28;20242;-71
2021/12/12 00:51:54;;;;;;;18.67;11.47;;;;;;;;;;5039676;28;20231;-70
2021/12/12 00:54:21;;;;;;;24.87;12.63;;;;;;;;;;5041431;28;20214;-70
2021/12/12 00:56:49;;;;;;;21.83;13.07;;;;;;;;;;5039931;28;20215;-70
2021/12/12 00:59:16;;;;;;;25.33;13.23;;;;;;;;;;5039543;28;20237;-70
2021/12/12 01:01:46;;;;;;;20.03;12.37;;;;;;;;;;5040076;28;20280;-70
2021/12/12 01:04:18;;;;;;;19.80;12.80;;;;;;;;;;5041237;28;20210;-70
2021/12/12 01:06:46;;;;;;;19.83;12.70;;;;;;;;;;5039514;28;20813;-71
2021/12/12 01:09:19;;;;;;;21.40;13.90;;;;;;;;;;5039769;28;20237;-71
2021/12/12 01:11:49;;;;;;;19.60;12.83;;;;;;;;;;5040730;28;20218;-71
2021/12/12 01:14:19;;;;;;;27.87;13.77;;;;;;;;;;5040860;28;20250;-71
2021/12/12 01:16:50;;;;;;;29.33;14.77;;;;;;;;;;5038543;28;20231;-71
2021/12/12 01:19:21;;;;;;;26.60;14.43;;;;;;;;;;5040322;28;20225;-71
2021/12/12 01:21:52;;;;;;;19.43;13.87;;;;;;;;;;5041235;28;20210;-71
2021/12/12 01:24:24;;;;;;;24.87;13.03;;;;;;;;;;5038695;28;20214;-71
2021/12/12 01:26:50;;;;;;;25.63;13.23;;;;;;;;;;5039480;28;20263;-71
2021/12/12 01:29:17;;;;;;;22.73;13.13;;;;;;;;;;5041015;28;20230;-71
2021/12/12 01:31:47;;;;;;;28.63;13.80;;;;;;;;;;5039935;28;20230;-71
2021/12/12 01:34:18;;;;;;;24.87;12.90;;;;;;;;;;5038747;28;20211;-72
2021/12/12 01:36:54;;;;;;;23.00;12.10;;;;;;;;;;5039287;28;20246;-71
2021/12/12 01:39:23;;;;;;;26.00;12.00;;;;;;;;;;5040252;28;20323;-71
2021/12/12 01:41:55;;;;;;;21.87;13.50;;;;;;;;;;5038609;28;20214;-71
2021/12/12 01:44:25;;;;;;;24.27;12.73;;;;;;;;;;5038750;28;20264;-73
2021/12/12 01:46:54;;;;;;;22.70;13.80;;;;;;;;;;5039988;28;20233;-71
2021/12/12 01:49:24;;;;;;;21.30;13.90;;;;;;;;;;5040330;28;20277;-71
2021/12/12 01:51:54;;;;;;;20.27;13.13;;;;;;;;;;5038310;28;20260;-71
2021/12/12 01:54:27;;;;;;;23.80;12.23;;;;;;;;;;5038644;28;20225;-72
2021/12/12 01:56:59;;;;;;;22.53;13.47;;;;;;;;;;5041080;28;20210;-71
2021/12/12 01:59:29;;;;;;;22.73;12.03;;;;;;;;;;5039251;28;20210;-72
2021/12/12 02:01:59;;;;;;;24.00;13.40;;;;;;;;;;5038515;28;21131;-71
2021/12/12 02:04:34;;;;;;;23.07;12.87;;;;;;;;;;5039936;28;20260;-71
2021/12/12 02:07:06;;;;;;;20.60;11.90;;;;;;;;;;5041002;28;20260;-71
2021/12/12 02:09:33;;;;;;;20.03;11.67;;;;;;;;;;5038119;28;20226;-71
2021/12/12 02:12:01;;;;;;;19.87;12.07;;;;;;;;;;5038799;28;20215;-71
2021/12/12 02:14:31;;;;;;;16.47;11.13;;;;;;;;;;5040180;28;20256;-71
2021/12/12 02:17:03;;;;;;;19.77;12.63;;;;;;;;;;5038597;28;20763;-71
2021/12/12 02:19:37;;;;;;;18.80;12.13;;;;;;;;;;5038463;28;20368;-71
2021/12/12 02:22:28;;;;;;;18.13;11.20;;;;;;;;;;5039489;28;20614;-71
2021/12/12 02:35:54;;;;;;;20.63;12.30;;;;;;;;;;5040161;28;20240;-71
2021/12/12 02:38:25;;;;;;;27.33;13.27;;;;;;;;;;5039331;28;20252;-71
2021/12/12 02:40:55;;;;;;;19.77;12.07;;;;;;;;;;5038188;28;20231;-71
2021/12/12 02:43:25;;;;;;;20.77;11.03;;;;;;;;;;5039339;28;20273;-71
2021/12/12 02:45:55;;;;;;;17.97;11.40;;;;;;;;;;5040439;28;21163;-71
2021/12/12 02:48:26;;;;;;;19.63;11.17;;;;;;;;;;5038409;28;20783;-71
2021/12/12 02:50:55;;;;;;;16.20;11.57;;;;;;;;;;5037691;28;20230;-71
2021/12/12 02:53:28;;;;;;;21.13;13.57;;;;;;;;;;5039206;28;20214;-71
2021/12/12 02:55:57;;;;;;;16.97;11.17;;;;;;;;;;5042953;28;20661;-71
2021/12/12 02:58:24;;;;;;;20.00;12.00;;;;;;;;;;5041501;28;20210;-71
2021/12/12 03:00:57;;;;;;;16.87;11.47;;;;;;;;;;5041918;28;20284;-70
2021/12/12 03:03:27;;;;;;;23.33;14.13;;;;;;;;;;5043492;28;20210;-71
2021/12/12 03:05:53;;;;;;;20.17;14.10;;;;;;;;;;5042518;28;20219;-71
2021/12/12 03:08:20;;;;;;;20.63;14.60;;;;;;;;;;5041161;28;20296;-71
2021/12/12 03:10:52;;;;;;;21.77;12.97;;;;;;;;;;5043114;28;20233;-71
2021/12/12 03:13:19;;;;;;;23.90;16.83;;;;;;;;;;5043222;28;20288;-70
2021/12/12 03:15:48;;;;;;;17.10;11.93;;;;;;;;;;5040932;28;20226;-71
2021/12/12 03:18:18;;;;;;;17.30;13.50;;;;;;;;;;5041956;28;20218;-71
2021/12/12 03:20:48;;;;;;;25.97;15.53;;;;;;;;;;5043416;28;20215;-71
2021/12/12 03:23:19;;;;;;;24.50;17.30;;;;;;;;;;5042425;28;20229;-70
2021/12/12 03:25:49;;;;;;;16.00;11.70;;;;;;;;;;5041102;28;20230;-71
2021/12/12 03:28:19;;;;;;;20.47;14.47;;;;;;;;;;5043003;28;20272;-71
2021/12/12 03:30:49;;;;;;;16.77;13.87;;;;;;;;;;5042383;28;20597;-71
2021/12/12 03:33:16;;;;;;;16.10;11.80;;;;;;;;;;5040432;28;20740;-71
2021/12/12 03:35:47;;;;;;;16.37;11.60;;;;;;;;;;5041324;28;20351;-71
2021/12/12 03:38:14;;;;;;;19.50;14.17;;;;;;;;;;5042800;28;20206;-71
2021/12/12 03:40:41;;;;;;;14.93;12.47;;;;;;;;;;5039678;28;20368;-71
2021/12/12 03:43:10;;;;;;;11.93;9.00;;;;;;;;;;5040616;28;20210;-71
2021/12/12 03:45:38;;;;;;;13.53;9.60;;;;;;;;;;5041729;28;20222;-71
2021/12/12 03:48:09;;;;;;;16.13;13.53;;;;;;;;;;5042464;28;20211;-73
2021/12/12 03:50:39;;;;;;;16.77;14.20;;;;;;;;;;5040521;28;20261;-72
2021/12/12 03:53:07;;;;;;;13.67;11.03;;;;;;;;;;5041714;28;20218;-72
2021/12/12 03:55:35;;;;;;;12.73;11.17;;;;;;;;;;5042547;28;20234;-71
2021/12/12 03:58:04;;;;;;;15.43;12.80;;;;;;;;;;5040642;28;20260;-71
2021/12/12 04:00:37;;;;;;;13.53;10.03;;;;;;;;;;5040799;28;20214;-71
2021/12/12 04:03:04;;;;;;;15.50;10.73;;;;;;;;;;5042503;28;20229;-71
2021/12/12 04:05:31;;;;;;;15.60;13.87;;;;;;;;;;5040715;28;20271;-71
2021/12/12 04:07:57;;;;;;;16.70;12.13;;;;;;;;;;5039782;28;20264;-71
2021/12/12 04:10:24;;;;;;;15.30;13.57;;;;;;;;;;5040575;28;20284;-71
2021/12/12 04:12:51;;;;;;;17.07;14.20;;;;;;;;;;5041883;28;20202;-71
2021/12/12 04:15:18;;;;;;;14.43;12.70;;;;;;;;;;5040116;28;20206;-71
2021/12/12 04:17:47;;;;;;;16.33;13.40;;;;;;;;;;5040578;28;20281;-71
2021/12/12 04:20:19;;;;;;;15.50;13.90;;;;;;;;;;5040687;28;20513;-71
2021/12/12 04:22:46;;;;;;;17.20;15.20;;;;;;;;;;5038716;28;20565;-71
2021/12/12 04:25:14;;;;;;;12.20;10.50;;;;;;;;;;5037927;28;20227;-71
2021/12/12 04:27:42;;;;;;;14.13;12.67;;;;;;;;;;5040497;28;20214;-73
2021/12/12 04:30:11;;;;;;;14.33;11.93;;;;;;;;;;5039981;28;20328;-73
2021/12/12 04:32:39;;;;;;;14.70;12.53;;;;;;;;;;5037783;28;20222;-71
2021/12/12 04:35:10;;;;;;;18.37;16.33;;;;;;;;;;5040360;28;20223;-71
2021/12/12 04:37:38;;;;;;;17.60;15.47;;;;;;;;;;5041520;28;20287;-73
2021/12/12 04:40:08;;;;;;;20.83;16.17;;;;;;;;;;5039416;28;20311;-71
2021/12/12 04:42:37;;;;;;;14.70;12.40;;;;;;;;;;5039304;28;20219;-72
2021/12/12 04:45:17;;;;;;;17.07;13.90;;;;;;;;;;5041510;28;20207;-72
2021/12/12 04:50:42;;;;;;;18.23;15.40;;;;;;;;;;5039193;28;20264;-71
2021/12/12 04:53:16;;;;;;;19.70;17.43;;;;;;;;;;5039137;28;20229;-72
2021/12/12 04:55:53;;;;;;;24.73;18.13;;;;;;;;;;5040608;28;20645;-71
2021/12/12 04:58:24;;;;;;;17.03;14.57;;;;;;;;;;5040731;28;20256;-72
2021/12/12 05:00:55;;;;;;;17.30;14.83;;;;;;;;;;5039175;28;20752;-72
2021/12/12 05:03:26;;;;;;;20.07;16.67;;;;;;;;;;5038924;28;20254;-71
2021/12/12 05:06:01;;;;;;;19.63;17.63;;;;;;;;;;5041359;28;21075;-73
2021/12/12 05:08:34;;;;;;;17.77;14.93;;;;;;;;;;5039038;28;20209;-73
2021/12/12 05:11:04;;;;;;;23.33;19.37;;;;;;;;;;5039433;28;20647;-73
2021/12/12 05:13:34;;;;;;;18.20;14.20;;;;;;;;;;5040003;28;20633;-74
2021/12/12 05:16:07;;;;;;;22.17;18.07;;;;;;;;;;5040919;28;20705;-73
2021/12/12 05:18:37;;;;;;;25.67;21.30;;;;;;;;;;5038806;28;20370;-73
2021/12/12 05:21:08;;;;;;;25.90;18.73;;;;;;;;;;5039525;28;20260;-71
2021/12/12 05:23:36;;;;;;;18.77;14.00;;;;;;;;;;5040555;28;20260;-72
2021/12/12 05:26:06;;;;;;;26.97;19.17;;;;;;;;;;5039729;28;20307;-71
2021/12/12 05:28:36;;;;;;;24.80;19.07;;;;;;;;;;5038071;28;20227;-71
2021/12/12 05:31:04;;;;;;;25.70;22.92;;;;;;;;;;5038120;28;20521;-74
2021/12/12 05:33:32;;;;;;;25.70;22.23;;;;;;;;;;5041051;28;20260;-74
2021/12/12 05:36:00;;;;;;;26.43;21.60;;;;;;;;;;5038275;28;20219;-75
2021/12/12 05:38:29;;;;;;;33.63;22.83;;;;;;;;;;5039067;28;20210;-75
2021/12/12 05:40:56;;;;;;;20.70;17.40;;;;;;;;;;5040389;28;20817;-74
2021/12/12 05:43:23;;;;;;;25.30;19.77;;;;;;;;;;5039530;28;20206;-75
2021/12/12 05:45:52;;;;;;;18.70;14.77;;;;;;;;;;5039094;28;20234;-74
2021/12/12 05:48:20;;;;;;;28.40;22.37;;;;;;;;;;5040203;28;20230;-75
2021/12/12 05:50:47;;;;;;;31.70;22.57;;;;;;;;;;5040712;28;20234;-75
2021/12/12 05:53:14;;;;;;;27.33;22.00;;;;;;;;;;5039368;28;20206;-74
2021/12/12 05:55:43;;;;;;;33.07;21.53;;;;;;;;;;5039145;28;20226;-74
2021/12/12 05:58:12;;;;;;;24.03;18.57;;;;;;;;;;5040842;28;20265;-75
2021/12/12 06:00:41;;;;;;;34.57;25.07;;;;;;;;;;5039048;28;20583;-74
2021/12/12 06:03:10;;;;;;;29.60;23.17;;;;;;;;;;5038754;28;20223;-74
2021/12/12 06:05:37;;;;;;;31.37;22.83;;;;;;;;;;5040428;28;20218;-75
2021/12/12 06:08:05;;;;;;;28.83;22.17;;;;;;;;;;5039669;28;20868;-74
2021/12/12 06:10:33;;;;;;;35.33;26.73;;;;;;;;;;5037411;28;20230;-74
2021/12/12 06:13:02;;;;;;;30.10;22.47;;;;;;;;;;5040268;28;20295;-75
2021/12/12 06:15:32;;;;;;;35.03;23.97;;;;;;;;;;5040082;28;20215;-74
2021/12/12 06:18:00;;;;;;;24.37;18.23;;;;;;;;;;5037984;28;20211;-74
2021/12/12 06:20:28;;;;;;;29.43;20.10;;;;;;;;;;5038664;28;20439;-74
2021/12/12 06:22:56;;;;;;;34.27;22.70;;;;;;;;;;5040104;28;20236;-74
2021/12/12 06:25:23;;;;;;;40.07;28.17;;;;;;;;;;5037943;28;20226;-74
2021/12/12 06:27:50;;;;;;;36.53;26.00;;;;;;;;;;5038892;28;20222;-74
2021/12/12 06:30:20;;;;;;;35.43;22.73;;;;;;;;;;5042846;28;20506;-73
2021/12/12 06:32:48;;;;;;;40.10;27.60;;;;;;;;;;5043931;28;20661;-74
2021/12/12 06:35:16;;;;;;;47.97;31.23;;;;;;;;;;5042126;28;20284;-77
2021/12/12 06:37:44;;;;;;;36.97;26.07;;;;;;;;;;5042978;28;20272;-74
2021/12/12 06:40:13;;;;;;;45.50;28.67;;;;;;;;;;5043485;28;20297;-74
2021/12/12 06:42:40;;;;;;;40.63;26.60;;;;;;;;;;5041100;28;20268;-74
2021/12/12 06:45:09;;;;;;;42.43;29.47;;;;;;;;;;5041762;28;20215;-74
2021/12/12 06:47:37;;;;;;;37.70;23.63;;;;;;;;;;5043962;28;20222;-76
2021/12/12 06:50:05;;;;;;;40.73;26.53;;;;;;;;;;5043287;28;20227;-74
2021/12/12 06:52:32;;;;;;;52.37;30.90;;;;;;;;;;5040714;28;20615;-76
2021/12/12 06:54:59;;;;;;;40.77;27.37;;;;;;;;;;5043299;28;20300;-74
2021/12/12 06:57:26;;;;;;;50.33;32.10;;;;;;;;;;5043853;28;20277;-74
2021/12/12 06:59:53;;;;;;;43.70;28.63;;;;;;;;;;5042064;28;20219;-74
2021/12/12 07:02:20;;;;;;;40.93;26.63;;;;;;;;;;5040711;28;20265;-75
2021/12/12 07:04:50;;;;;;;51.33;30.20;;;;;;;;;;5042766;28;20211;-75
2021/12/12 07:07:17;;;;;;;48.87;29.57;;;;;;;;;;5039650;28;20210;-74
2021/12/12 07:09:47;;;;;;;42.50;27.03;;;;;;;;;;5040806;28;20749;-76
2021/12/12 07:12:21;;;;;;;47.27;28.27;;;;;;;;;;5040426;28;20829;-74
2021/12/12 07:14:48;;;;;;;54.60;32.47;;;;;;;;;;5040715;28;20305;-74
2021/12/12 07:17:16;;;;;;;56.53;33.33;;;;;;;;;;5041108;28;20276;-74
2021/12/12 07:19:43;;;;;;;38.87;24.90;;;;;;;;;;5038380;28;20215;-74
2021/12/12 07:22:11;;;;;;;50.13;29.70;;;;;;;;;;5040577;28;20202;-74
2021/12/12 07:24:39;;;;;;;52.40;31.37;;;;;;;;;;5039033;28;20227;-74
2021/12/12 07:27:06;;;;;;;53.13;32.50;;;;;;;;;;5038657;28;20203;-73
2021/12/12 07:29:33;;;;;;;53.77;30.57;;;;;;;;;;5041565;28;20638;-76
2021/12/12 07:32:00;;;;;;;58.93;32.00;;;;;;;;;;5038437;28;20298;-74
2021/12/12 07:34:28;;;;;;;51.23;29.80;;;;;;;;;;5039373;28;20252;-74
2021/12/12 07:36:57;;;;;;;58.80;31.73;;;;;;;;;;5040537;28;20280;-74
2021/12/12 07:39:27;;;;;;;56.23;32.60;;;;;;;;;;5038349;28;20238;-74
2021/12/12 07:41:55;;;;;;;57.23;32.07;;;;;;;;;;5040503;28;20261;-74
2021/12/12 07:44:26;;;;;;;68.43;36.30;;;;;;;;;;5037796;28;20252;-74
2021/12/12 07:46:54;;;;;;;57.13;32.53;;;;;;;;;;5040950;28;20231;-75
2021/12/12 07:49:24;;;;;;;59.67;33.47;;;;;;;;;;5040081;28;20292;-75
2021/12/12 07:51:50;;;;;;;82.67;38.67;;;;;;;;;;5037872;28;20786;-76
2021/12/12 07:54:18;;;;;;;67.50;37.17;;;;;;;;;;5039883;28;20219;-75
2021/12/12 07:56:46;;;;;;;68.73;35.83;;;;;;;;;;5039101;28;20195;-76
2021/12/12 07:59:17;;;;;;;66.90;36.47;;;;;;;;;;5037360;28;20218;-75
2021/12/12 08:01:47;;;;;;;80.57;40.63;;;;;;;;;;5038751;28;20234;-76
2021/12/12 08:04:16;;;;;;;80.13;38.97;;;;;;;;;;5038314;28;20273;-75
2021/12/12 08:06:44;;;;;;;68.13;33.93;;;;;;;;;;5040229;28;20211;-74
2021/12/12 08:09:11;;;;;;;76.83;37.77;;;;;;;;;;5040114;28;20262;-74
2021/12/12 08:11:40;;;;;;;78.40;38.33;;;;;;;;;;5038077;28;20231;-74
2021/12/12 08:14:12;;;;;;;71.63;35.00;;;;;;;;;;5040561;28;20720;-73
2021/12/12 08:16:39;;;;;;;74.30;37.50;;;;;;;;;;5038520;28;20281;-74
2021/12/12 08:19:06;;;;;;;80.37;38.87;;;;;;;;;;5039229;28;20214;-74
2021/12/12 08:21:33;;;;;;;89.23;42.57;;;;;;;;;;5039043;28;20207;-74
2021/12/12 08:24:02;;;;;;;82.20;36.80;;;;;;;;;;5037255;28;20238;-74
2021/12/12 08:26:29;;;;;;;70.07;36.03;;;;;;;;;;5038334;28;20234;-73
2021/12/12 08:28:56;;;;;;;80.17;38.77;;;;;;;;;;5038989;28;20687;-73
2021/12/12 08:31:24;;;;;;;92.00;40.77;;;;;;;;;;5037103;28;20297;-74
2021/12/12 08:33:50;;;;;;;76.43;35.83;;;;;;;;;;5039699;28;20312;-74
2021/12/12 08:36:17;;;;;;;80.37;38.43;;;;;;;;;;5036624;28;20674;-74
2021/12/12 08:38:44;;;;;;;82.53;38.57;;;;;;;;;;5039478;28;20258;-74
2021/12/12 08:41:12;;;;;;;74.57;36.73;;;;;;;;;;5037695;28;20644;-74
2021/12/12 08:43:39;;;;;;;74.07;36.07;;;;;;;;;;5037732;28;20264;-74
2021/12/12 08:46:08;;;;;;;74.27;36.03;;;;;;;;;;5038370;28;20248;-74
2021/12/12 08:48:41;;;;;;;78.13;34.53;;;;;;;;;;5035991;28;20236;-73
2021/12/12 08:51:11;;;;;;;60.67;32.60;;;;;;;;;;5037042;28;20286;-73
2021/12/12 08:53:39;;;;;;;75.63;35.53;;;;;;;;;;5037222;28;20218;-74
2021/12/12 08:56:09;;;;;;;72.97;37.03;;;;;;;;;;5035117;28;20227;-74
2021/12/12 08:58:35;;;;;;;69.33;32.70;;;;;;;;;;5038446;28;20612;-74
2021/12/12 09:01:10;;;;;;;67.07;35.17;;;;;;;;;;5036458;28;20729;-73
2021/12/12 09:03:40;;;;;;;66.13;31.83;;;;;;;;;;5037611;28;20285;-73
2021/12/12 09:06:09;;;;;;;59.50;29.03;;;;;;;;;;5038660;28;20415;-73
2021/12/12 09:08:43;;;;;;;59.63;29.40;;;;;;;;;;5037117;28;20212;-73
2021/12/12 09:11:17;;;;;;;67.50;32.47;;;;;;;;;;5037395;28;20223;-74
2021/12/12 09:13:46;;;;;;;54.80;29.53;;;;;;;;;;5039010;28;20262;-73
2021/12/12 09:16:20;;;;;;;65.17;32.30;;;;;;;;;;5035805;28;20227;-74
2021/12/12 09:18:53;;;;;;;55.50;31.17;;;;;;;;;;5039152;28;20254;-74
2021/12/12 09:21:26;;;;;;;50.23;25.80;;;;;;;;;;5037260;28;20340;-74
2021/12/12 09:24:03;;;;;;;56.40;28.03;;;;;;;;;;5037266;28;20757;-74
2021/12/12 09:26:32;;;;;;;53.20;28.27;;;;;;;;;;5037943;28;20230;-75
2021/12/12 09:29:06;;;;;;;53.87;27.10;;;;;;;;;;5037140;28;20215;-74
2021/12/12 09:31:40;;;;;;;46.37;26.27;;;;;;;;;;5037572;28;20239;-74
2021/12/12 09:34:12;;;;;;;45.13;27.77;;;;;;;;;;5038555;28;20721;-74
2021/12/12 09:36:44;;;;;;;46.23;25.73;;;;;;;;;;5036632;28;20207;-74
2021/12/12 09:39:15;;;;;;;50.07;27.60;;;;;;;;;;5038133;28;20241;-75
2021/12/12 09:42:01;;;;;;;42.47;24.77;;;;;;;;;;5036894;28;20223;-74
2021/12/12 09:44:48;;;;;;;56.67;28.03;;;;;;;;;;5035723;28;20210;-74
2021/12/12 09:47:28;;;;;;;46.30;27.80;;;;;;;;;;5037555;28;20234;-74
2021/12/12 09:53:09;;;;;;;37.90;23.07;;;;;;;;;;5035606;28;20239;-74
2021/12/12 09:55:43;;;;;;;50.50;28.80;;;;;;;;;;5038322;28;20238;-74
2021/12/12 09:58:21;;;;;;;50.03;25.23;;;;;;;;;;5036260;28;20207;-74
2021/12/12 10:00:57;;;;;;;50.00;27.63;;;;;;;;;;5033641;28;20288;-75
2021/12/12 10:03:29;;;;;;;47.20;26.83;;;;;;;;;;5039073;28;20261;-75
2021/12/12 10:06:04;;;;;;;47.57;25.70;;;;;;;;;;5038370;28;20265;-74
2021/12/12 10:08:48;;;;;;;50.13;26.80;;;;;;;;;;5043432;28;20215;-74
2021/12/12 10:11:23;;;;;;;47.30;25.80;;;;;;;;;;5040839;28;20615;-75
2021/12/12 10:13:59;;;;;;;47.97;26.37;;;;;;;;;;5040515;28;20987;-74
2021/12/12 10:16:32;;;;;;;40.23;24.23;;;;;;;;;;5039579;28;20297;-74
2021/12/12 10:19:05;;;;;;;44.03;24.83;;;;;;;;;;5039583;28;20590;-74
2021/12/12 10:21:40;;;;;;;42.10;23.37;;;;;;;;;;5041057;28;20204;-73
2021/12/12 10:24:17;;;;;;;46.07;25.27;;;;;;;;;;5036394;28;20353;-73
2021/12/12 10:26:49;;;;;;;56.33;27.30;;;;;;;;;;5041820;28;20243;-74
2021/12/12 10:29:21;;;;;;;45.17;24.50;;;;;;;;;;5039162;28;20225;-73
2021/12/12 10:31:53;;;;;;;43.23;25.23;;;;;;;;;;5040894;28;20242;-74
2021/12/12 10:34:24;;;;;;;48.33;26.47;;;;;;;;;;5039770;28;20250;-74
2021/12/12 10:37:03;;;;;;;40.57;23.13;;;;;;;;;;5041980;28;20277;-74
2021/12/12 10:39:34;;;;;;;46.70;25.67;;;;;;;;;;5039103;28;20308;-75
2021/12/12 10:42:04;;;;;;;45.27;25.70;;;;;;;;;;5039575;28;20211;-76
2021/12/12 10:44:36;;;;;;;43.87;24.67;;;;;;;;;;5041332;28;20211;-76
2021/12/12 10:47:09;;;;;;;44.80;24.73;;;;;;;;;;5041032;28;20239;-76
2021/12/12 10:49:38;;;;;;;43.93;23.63;;;;;;;;;;5030774;28;20638;-76
2021/12/12 10:52:12;;;;;;;37.10;22.87;;;;;;;;;;5035751;28;20232;-76
2021/12/12 10:54:42;;;;;;;30.33;19.27;;;;;;;;;;5041180;28;20310;-75
2021/12/12 10:57:12;;;;;;;30.67;19.57;;;;;;;;;;5038429;28;20634;-76
2021/12/12 10:59:46;;;;;;;38.63;21.57;;;;;;;;;;5042220;28;20273;-76
2021/12/12 11:02:17;;;;;;;35.47;20.87;;;;;;;;;;5038910;28;20230;-75
2021/12/12 11:04:46;;;;;;;36.43;22.33;;;;;;;;;;5041858;28;20203;-76
2021/12/12 11:07:28;;;;;;;31.07;20.93;;;;;;;;;;5040509;28;20584;-76
2021/12/12 11:10:02;;;;;;;26.33;17.43;;;;;;;;;;5040119;28;20753;-75
2021/12/12 11:12:39;;;;;;;31.03;19.43;;;;;;;;;;5040419;28;20233;-76
2021/12/12 11:15:09;;;;;;;30.30;18.73;;;;;;;;;;5038301;28;20217;-76
2021/12/12 11:17:40;;;;;;;28.60;19.33;;;;;;;;;;5041808;28;20239;-76
2021/12/12 11:20:12;;;;;;;28.13;18.50;;;;;;;;;;5038514;28;20258;-76
2021/12/12 11:22:44;;;;;;;27.57;19.10;;;;;;;;;;5040814;28;20208;-76
2021/12/12 11:25:19;;;;;;;26.50;17.73;;;;;;;;;;5039267;28;20229;-75
2021/12/12 11:27:49;;;;;;;24.83;17.43;;;;;;;;;;5039640;28;20270;-76
2021/12/12 11:30:21;;;;;;;31.23;19.07;;;;;;;;;;5040541;28;20264;-76
2021/12/12 11:32:49;;;;;;;32.17;19.43;;;;;;;;;;5039433;28;20286;-76
2021/12/12 11:35:19;;;;;;;30.23;19.60;;;;;;;;;;5040988;28;20221;-76
2021/12/12 11:37:55;;;;;;;30.03;18.07;;;;;;;;;;5039238;28;20216;-75
2021/12/12 11:40:25;;;;;;;34.17;19.80;;;;;;;;;;5039927;28;20313;-76
2021/12/12 11:42:57;;;;;;;29.47;19.23;;;;;;;;;;5040272;28;20273;-76
2021/12/12 11:45:26;;;;;;;32.47;19.27;;;;;;;;;;5038851;28;20260;-76
2021/12/12 11:47:58;;;;;;;29.13;19.53;;;;;;;;;;5040817;28;20772;-76
2021/12/12 11:50:36;;;;;;;36.77;20.93;;;;;;;;;;5037400;28;21060;-75
2021/12/12 11:53:07;;;;;;;30.73;20.43;;;;;;;;;;5041378;28;20790;-76
2021/12/12 11:55:38;;;;;;;28.23;18.17;;;;;;;;;;5038601;28;20639;-75
2021/12/12 11:58:15;;;;;;;33.13;20.43;;;;;;;;;;5039065;28;20265;-75
2021/12/12 12:00:47;;;;;;;30.70;18.80;;;;;;;;;;5042268;28;20232;-76
2021/12/12 12:03:27;;;;;;;24.33;17.23;;;;;;;;;;5037144;28;20297;-75
2021/12/12 12:06:08;;;;;;;29.37;18.43;;;;;;;;;;5038623;28;20993;-76
2021/12/12 12:08:47;;;;;;;27.27;18.67;;;;;;;;;;5036563;28;20266;-75
2021/12/12 12:11:27;;;;;;;25.77;17.37;;;;;;;;;;5039308;28;20637;-76
2021/12/12 12:13:57;;;;;;;32.63;20.73;;;;;;;;;;5040067;28;20912;-76
2021/12/12 12:16:41;;;;;;;28.70;18.73;;;;;;;;;;5036784;28;20286;-76
2021/12/12 12:19:17;;;;;;;32.60;19.17;;;;;;;;;;5039091;28;20213;-76
2021/12/12 12:22:02;;;;;;;26.13;18.13;;;;;;;;;;5037181;28;20768;-75
2021/12/12 12:24:40;;;;;;;28.47;19.57;;;;;;;;;;5037064;28;20236;-76
2021/12/12 12:27:11;;;;;;;24.83;18.73;;;;;;;;;;5038680;28;20224;-76
2021/12/12 12:30:22;;;;;;;37.13;19.77;;;;;;;;;;5038914;28;20220;-76
2021/12/12 12:33:42;;;;;;;25.80;18.63;;;;;;;;;;5040551;28;20319;-76
2021/12/12 12:36:54;;;;;;;31.47;19.63;;;;;;;;;;5037366;28;20834;-76
2021/12/12 12:39:59;;;;;;;30.87;18.77;;;;;;;;;;5037468;28;20248;-76
2021/12/12 12:43:11;;;;;;;28.93;19.53;;;;;;;;;;5039514;28;20730;-75
2021/12/12 12:46:07;;;;;;;32.70;19.93;;;;;;;;;;5039449;28;20339;-76
2021/12/12 12:49:07;;;;;;;28.23;19.43;;;;;;;;;;5037880;28;20235;-76
2021/12/12 12:51:56;;;;;;;28.00;18.60;;;;;;;;;;5025321;28;20231;-76
2021/12/12 12:54:29;;;;;;;34.17;22.17;;;;;;;;;;5038162;28;20961;-76
2021/12/12 12:57:06;;;;;;;30.80;19.93;;;;;;;;;;5036904;28;20216;-75
2021/12/12 12:59:54;;;;;;;41.70;21.87;;;;;;;;;;5040090;28;20211;-76
2021/12/12 13:02:22;;;;;;;33.80;21.60;;;;;;;;;;5037906;28;20216;-75
2021/12/12 13:05:23;;;;;;;35.40;23.10;;;;;;;;;;5039447;28;20882;-76
2021/12/12 13:08:39;;;;;;;30.87;19.43;;;;;;;;;;5037931;28;20604;-75
2021/12/12 13:11:11;;;;;;;39.13;22.13;;;;;;;;;;5036561;28;20223;-76
2021/12/12 13:13:48;;;;;;;32.87;21.33;;;;;;;;;;5039073;28;20244;-75
2021/12/12 13:16:19;;;;;;;30.63;20.23;;;;;;;;;;5037615;28;20221;-76
2021/12/12 13:18:53;;;;;;;32.33;21.43;;;;;;;;;;5038716;28;20213;-75
2021/12/12 13:21:30;;;;;;;36.30;19.30;;;;;;;;;;5038479;28;20208;-76
2021/12/12 13:24:07;;;;;;;33.37;21.70;;;;;;;;;;5037125;28;20571;-75
2021/12/12 13:26:51;;;;;;;28.07;20.17;;;;;;;;;;5039222;28;20235;-75
2021/12/12 13:29:29;;;;;;;29.07;19.83;;;;;;;;;;5038276;28;20241;-75
2021/12/12 13:32:05;;;;;;;34.70;21.47;;;;;;;;;;5037738;28;20236;-75
2021/12/12 13:34:37;;;;;;;33.77;20.70;;;;;;;;;;5038932;28;20217;-75
2021/12/12 13:37:14;;;;;;;46.40;23.03;;;;;;;;;;5036967;28;20217;-75
2021/12/12 13:40:02;;;;;;;27.67;20.03;;;;;;;;;;5038625;28;20715;-75
2021/12/12 13:42:41;;;;;;;35.47;22.23;;;;;;;;;;5037584;28;20231;-75
2021/12/12 13:45:24;;;;;;;32.17;20.23;;;;;;;;;;5038030;28;20271;-75
2021/12/12 13:48:00;;;;;;;32.13;21.47;;;;;;;;;;5038301;28;20213;-75
2021/12/12 13:50:33;;;;;;;31.93;20.77;;;;;;;;;;5036737;28;20217;-76
2021/12/12 13:53:08;;;;;;;42.57;21.13;;;;;;;;;;5039122;28;20292;-75
2021/12/12 13:55:47;;;;;;;38.67;22.93;;;;;;;;;;5037319;28;20230;-76
2021/12/12 13:58:24;;;;;;;32.00;21.20;;;;;;;;;;5038551;28;20218;-76
2021/12/12 14:00:54;;;;;;;43.30;22.70;;;;;;;;;;5040067;28;20596;-75
2021/12/12 14:03:28;;;;;;;32.60;20.43;;;;;;;;;;5037542;28;20218;-75
2021/12/12 14:05:59;;;;;;;35.20;21.33;;;;;;;;;;5039132;28;20691;-76
2021/12/12 14:08:29;;;;;;;30.70;19.63;;;;;;;;;;5038996;28;20206;-75
2021/12/12 14:10:59;;;;;;;38.17;20.60;;;;;;;;;;5037413;28;20243;-75
2021/12/12 14:13:31;;;;;;;44.80;21.87;;;;;;;;;;5039504;28;20228;-75
2021/12/12 14:16:05;;;;;;;38.13;20.57;;;;;;;;;;5039754;28;20306;-75
2021/12/12 14:18:34;;;;;;;32.47;20.40;;;;;;;;;;5037438;28;20261;-75
2021/12/12 14:21:02;;;;;;;34.70;20.90;;;;;;;;;;5039865;28;20220;-75
2021/12/12 14:23:31;;;;;;;34.07;21.50;;;;;;;;;;5035171;28;20206;-75
2021/12/12 14:26:04;;;;;;;33.00;21.23;;;;;;;;;;5035346;28;20683;-75
2021/12/12 14:28:35;;;;;;;31.40;18.90;;;;;;;;;;5038513;28;20206;-75
2021/12/12 14:31:04;;;;;;;42.27;20.87;;;;;;;;;;5035429;28;20629;-75
2021/12/12 14:33:35;;;;;;;31.23;19.00;;;;;;;;;;5037029;28;20766;-75
2021/12/12 14:36:05;;;;;;;32.77;20.37;;;;;;;;;;5034002;28;20259;-75
2021/12/12 14:38:32;;;;;;;30.07;19.27;;;;;;;;;;5037156;28;20302;-75
2021/12/12 14:41:02;;;;;;;30.70;19.33;;;;;;;;;;5036450;28;20257;-75
2021/12/12 14:43:34;;;;;;;39.20;20.50;;;;;;;;;;5034645;28;20218;-75
2021/12/12 14:46:06;;;;;;;39.40;19.17;;;;;;;;;;5036676;28;20311;-75
2021/12/12 14:48:38;;;;;;;40.63;21.13;;;;;;;;;;5035211;28;20833;-75
2021/12/12 14:51:08;;;;;;;34.77;18.27;;;;;;;;;;5038547;28;20228;-75
2021/12/12 14:53:42;;;;;;;46.10;21.20;;;;;;;;;;5038695;28;20273;-75
2021/12/12 14:56:12;;;;;;;38.33;19.30;;;;;;;;;;5039435;28;20218;-76
2021/12/12 14:58:47;;;;;;;42.43;19.87;;;;;;;;;;5040871;28;20906;-75
2021/12/12 15:01:18;;;;;;;40.00;19.83;;;;;;;;;;5039249;28;20283;-75